DAL502 KATL-KDFW
Flight info
| Callsign | DAL502 |
|---|---|
| Flight time | N/A |
| Altitude | 34000 |
| Route | KAJIN2 STNGA DCT MLU DCT YUYUN WHINY4 |
| Aircraft | A321/M-SDE3FGHIRWY/LB1 |
Departure
| Time | 2026-05-06 21:39 |
|---|---|
| Airport | Hartsfield Jackson Atlanta International Airport (KATL) |
Arrival
| Time | N/A |
|---|---|
| Airport | Dallas Fort Worth International Airport (KDFW) |
| Time | Latitude | Longitude | Altitude | Speed | Heading |
|---|---|---|---|---|---|
| 2026-05-06 21:26 | 33.64373 | -84.43199 | 1006 ft | 0 kts | 266° |
| 2026-05-06 21:27 | 33.64374 | -84.43183 | 1006 ft | 4 kts | 271° |
| 2026-05-06 21:27 | 33.64370 | -84.43152 | 1006 ft | 4 kts | 295° |
| 2026-05-06 21:28 | 33.64355 | -84.43130 | 1006 ft | 4 kts | 345° |
| 2026-05-06 21:28 | 33.64344 | -84.43127 | 1006 ft | 1 kts | 356° |
| 2026-05-06 21:31 | 33.64357 | -84.43128 | 1006 ft | 6 kts | 356° |
| 2026-05-06 21:31 | 33.64424 | -84.43118 | 1007 ft | 14 kts | 27° |
| 2026-05-06 21:32 | 33.64459 | -84.43003 | 1006 ft | 15 kts | 89° |
| 2026-05-06 21:32 | 33.64459 | -84.42863 | 1006 ft | 13 kts | 90° |
| 2026-05-06 21:32 | 33.64464 | -84.42757 | 1006 ft | 13 kts | 83° |
| 2026-05-06 21:33 | 33.64469 | -84.42632 | 1006 ft | 16 kts | 88° |
| 2026-05-06 21:33 | 33.64469 | -84.42547 | 1006 ft | 18 kts | 89° |
| 2026-05-06 21:34 | 33.64470 | -84.42396 | 1006 ft | 21 kts | 90° |
| 2026-05-06 21:34 | 33.64496 | -84.42215 | 1006 ft | 23 kts | 60° |
| 2026-05-06 21:34 | 33.64543 | -84.42023 | 1006 ft | 26 kts | 90° |
| 2026-05-06 21:35 | 33.64542 | -84.41808 | 1005 ft | 25 kts | 90° |
| 2026-05-06 21:35 | 33.64543 | -84.41611 | 1007 ft | 23 kts | 90° |
| 2026-05-06 21:35 | 33.64543 | -84.41424 | 1007 ft | 24 kts | 89° |
| 2026-05-06 21:35 | 33.64544 | -84.41198 | 1007 ft | 30 kts | 90° |
| 2026-05-06 21:36 | 33.64542 | -84.40920 | 1006 ft | 31 kts | 90° |
| 2026-05-06 21:36 | 33.64572 | -84.40711 | 1006 ft | 27 kts | 88° |
| 2026-05-06 21:36 | 33.64582 | -84.40583 | 1005 ft | 2 kts | 64° |
| 2026-05-06 21:36 | 33.64584 | -84.40581 | 1005 ft | 0 kts | 62° |
| 2026-05-06 21:37 | 33.64595 | -84.40572 | 1005 ft | 5 kts | 17° |
| 2026-05-06 21:37 | 33.64665 | -84.40577 | 1004 ft | 10 kts | 332° |
| 2026-05-06 21:37 | 33.64678 | -84.40616 | 1004 ft | 0 kts | 270° |
| 2026-05-06 21:38 | 33.64678 | -84.40617 | 1004 ft | 1 kts | 270° |
| 2026-05-06 21:38 | 33.64678 | -84.40736 | 1004 ft | 41 kts | 269° |
| 2026-05-06 21:38 | 33.64678 | -84.41353 | 1009 ft | 104 kts | 270° |
| 2026-05-06 21:38 | 33.64679 | -84.42422 | 1006 ft | 151 kts | 271° |
| 2026-05-06 21:39 | 33.64694 | -84.43774 | 1344 ft | 160 kts | 270° |
| 2026-05-06 21:39 | 33.64770 | -84.45054 | 2046 ft | 154 kts | 275° |
| 2026-05-06 21:39 | 33.65119 | -84.46310 | 2596 ft | 160 kts | 282° |
| 2026-05-06 21:39 | 33.65404 | -84.47597 | 3046 ft | 163 kts | 274° |
| 2026-05-06 21:40 | 33.65593 | -84.49019 | 3173 ft | 181 kts | 273° |
| 2026-05-06 21:40 | 33.65796 | -84.50599 | 3310 ft | 202 kts | 274° |
| 2026-05-06 21:40 | 33.66040 | -84.52355 | 3456 ft | 225 kts | 275° |
| 2026-05-06 21:40 | 33.66331 | -84.54274 | 3776 ft | 244 kts | 277° |
| 2026-05-06 21:41 | 33.66663 | -84.56301 | 4473 ft | 250 kts | 277° |
| 2026-05-06 21:41 | 33.67018 | -84.58351 | 5241 ft | 252 kts | 278° |
| 2026-05-06 21:41 | 33.67374 | -84.60417 | 6015 ft | 253 kts | 277° |
| 2026-05-06 21:41 | 33.67726 | -84.62499 | 6762 ft | 256 kts | 278° |
| 2026-05-06 21:42 | 33.68079 | -84.64595 | 7525 ft | 256 kts | 278° |
| 2026-05-06 21:42 | 33.68431 | -84.66694 | 8264 ft | 257 kts | 277° |
| 2026-05-06 21:42 | 33.68781 | -84.68798 | 9017 ft | 257 kts | 277° |
| 2026-05-06 21:42 | 33.68790 | -84.70917 | 9714 ft | 255 kts | 255° |
| 2026-05-06 21:43 | 33.68267 | -84.72971 | 10215 ft | 265 kts | 253° |
| 2026-05-06 21:43 | 33.67747 | -84.75180 | 10327 ft | 286 kts | 254° |
| 2026-05-06 21:43 | 33.67207 | -84.77563 | 10454 ft | 305 kts | 255° |
| 2026-05-06 21:43 | 33.66609 | -84.80089 | 10624 ft | 323 kts | 253° |
| 2026-05-06 21:44 | 33.65928 | -84.82694 | 11071 ft | 330 kts | 252° |
| 2026-05-06 21:44 | 33.65206 | -84.85320 | 11644 ft | 333 kts | 252° |
| 2026-05-06 21:44 | 33.64468 | -84.87966 | 12239 ft | 336 kts | 252° |
| 2026-05-06 21:44 | 33.63723 | -84.90634 | 12851 ft | 338 kts | 252° |
| 2026-05-06 21:45 | 33.62975 | -84.93319 | 13449 ft | 341 kts | 252° |
| 2026-05-06 21:45 | 33.62227 | -84.96027 | 14015 ft | 343 kts | 252° |
| 2026-05-06 21:45 | 33.61477 | -84.98756 | 14535 ft | 346 kts | 252° |
| 2026-05-06 21:45 | 33.60735 | -85.01465 | 15053 ft | 347 kts | 252° |
| 2026-05-06 21:46 | 33.60224 | -85.03328 | 15394 ft | 349 kts | 252° |
| 2026-05-06 21:46 | 33.59463 | -85.06106 | 15892 ft | 351 kts | 253° |
| 2026-05-06 21:46 | 33.58448 | -85.09809 | 16513 ft | 355 kts | 253° |
| 2026-05-06 21:46 | 33.57674 | -85.12628 | 16985 ft | 357 kts | 253° |
| 2026-05-06 21:47 | 33.56893 | -85.15469 | 17453 ft | 360 kts | 253° |
| 2026-05-06 21:47 | 33.56361 | -85.17401 | 17780 ft | 362 kts | 253° |
| 2026-05-06 21:47 | 33.55309 | -85.21208 | 18384 ft | 365 kts | 253° |
| 2026-05-06 21:47 | 33.54834 | -85.23143 | 18659 ft | 365 kts | 258° |
| 2026-05-06 21:48 | 33.54289 | -85.26121 | 19097 ft | 367 kts | 259° |
| 2026-05-06 21:48 | 33.53742 | -85.29110 | 19529 ft | 368 kts | 259° |
| 2026-05-06 21:48 | 33.53189 | -85.32112 | 19930 ft | 369 kts | 259° |
| 2026-05-06 21:48 | 33.52631 | -85.35124 | 20345 ft | 371 kts | 259° |
| 2026-05-06 21:49 | 33.52070 | -85.38149 | 20734 ft | 373 kts | 259° |
| 2026-05-06 21:49 | 33.51505 | -85.41192 | 21143 ft | 375 kts | 259° |
| 2026-05-06 21:49 | 33.50937 | -85.44246 | 21562 ft | 376 kts | 259° |
| 2026-05-06 21:49 | 33.50366 | -85.47312 | 21972 ft | 378 kts | 259° |
| 2026-05-06 21:50 | 33.49791 | -85.50389 | 22406 ft | 380 kts | 259° |
| 2026-05-06 21:50 | 33.49213 | -85.53481 | 22784 ft | 381 kts | 259° |
| 2026-05-06 21:50 | 33.48633 | -85.56593 | 23167 ft | 383 kts | 259° |
| 2026-05-06 21:50 | 33.48049 | -85.59713 | 23541 ft | 385 kts | 259° |
| 2026-05-06 21:51 | 33.47462 | -85.62848 | 23844 ft | 387 kts | 259° |
| 2026-05-06 21:51 | 33.46872 | -85.66002 | 24151 ft | 389 kts | 259° |
| 2026-05-06 21:51 | 33.46279 | -85.69173 | 24455 ft | 391 kts | 259° |
| 2026-05-06 21:51 | 33.45679 | -85.72360 | 24755 ft | 393 kts | 259° |
| 2026-05-06 21:52 | 33.45073 | -85.75561 | 25034 ft | 395 kts | 258° |
| 2026-05-06 21:52 | 33.44462 | -85.78779 | 25311 ft | 398 kts | 258° |
| 2026-05-06 21:52 | 33.43848 | -85.82020 | 25557 ft | 400 kts | 259° |
| 2026-05-06 21:52 | 33.43233 | -85.85272 | 25850 ft | 402 kts | 258° |
| 2026-05-06 21:53 | 33.42616 | -85.88541 | 26129 ft | 404 kts | 258° |
| 2026-05-06 21:53 | 33.41994 | -85.91829 | 26402 ft | 406 kts | 258° |
| 2026-05-06 21:53 | 33.41367 | -85.95130 | 26662 ft | 408 kts | 258° |
| 2026-05-06 21:53 | 33.40737 | -85.98447 | 26926 ft | 410 kts | 258° |
| 2026-05-06 21:54 | 33.40102 | -86.01779 | 27194 ft | 412 kts | 258° |
| 2026-05-06 21:54 | 33.39464 | -86.05127 | 27464 ft | 414 kts | 258° |
| 2026-05-06 21:54 | 33.38822 | -86.08491 | 27730 ft | 416 kts | 258° |
| 2026-05-06 21:54 | 33.38173 | -86.11868 | 27967 ft | 418 kts | 258° |
| 2026-05-06 21:55 | 33.37521 | -86.15258 | 28290 ft | 417 kts | 258° |
| 2026-05-06 21:55 | 33.36870 | -86.18639 | 28624 ft | 416 kts | 258° |